首页
METAR-TAF:

METAR-TAF

机场 :

Charlotte County Airport

Punta Gorda, 佛罗里达州, 美国

纬度: 26-55-04N, 经度: 081-59-37W, 海拔: 7米

当前天气观测

该预报发布于20分钟前的11:53 UTC
风速5节,风向
温度 27°C
湿度 100%
气压 1015 hPa
能見度: 16.1公里
天空无云

METAR: KPGD 131153Z 17005KT 10SM CLR 27/27 A2996 RMK AO2 SLP143 70012 T02670267 10267 20244 53007

时间: 08:13 (12:13 UTC)

预报

该预报发布于32分钟前的11:41 UTC
预报有效从13日的 12点(UTC)到 14日的 12点(UTC)
风速4节,风向西转西南
能見度: 10公里
少量云层高于2500英尺
散云层高于25000英尺
从 13日的 1500点(UTC)
风速9节,风向西
能見度: 10公里
散云层高于3500英尺
多云层高于25000英尺
从 13日的 1800点(UTC)
风速12节,风向西
能見度: 10公里
少量云层高于4500英尺
从 14日的 0000点(UTC)
风速6节,风向西转西南
能見度: 10公里
散云层高于2000英尺
从 14日的 0900点(UTC)
风速3节,风向多变
能見度: 10公里
多云层高于25000英尺

TAF: KPGD 131141Z 1312/1412 24004KT P6SM FEW025 SCT250 FM131500 27009KT P6SM SCT035 BKN250 FM131800 26012KT P6SM FEW045 FM140000 25006KT P6SM SCT020 FM140900 VRB03KT P6SM BKN250

超过4000个机场的气象观测和天气预报(METAR&TAF报告)。

可查询的气象台以黄色和红色小点在地图上表示。

将鼠标移到小点上方,可查看气象台名称。

然后点击查看天气观测和预报。

如需切换地图:点击带黑十字的绿色按钮放大地图;点击带横线的绿色按钮缩小地图;或者点击绿色箭头查看邻近地区的地图。


METAR-TAF: